sensor_id;sensor_type;location;lat;lon;timestamp;temperature;humidity
23405;DHT22;11875;49.356;2.718;2023-04-19T00:00:03;14.70;99.90
23405;DHT22;11875;49.356;2.718;2023-04-19T00:02:32;14.70;99.90
23405;DHT22;11875;49.356;2.718;2023-04-19T00:04:59;14.80;99.90
23405;DHT22;11875;49.356;2.718;2023-04-19T00:07:25;14.70;99.90
23405;DHT22;11875;49.356;2.718;2023-04-19T00:09:50;14.60;99.90
23405;DHT22;11875;49.356;2.718;2023-04-19T00:12:16;14.50;99.90
23405;DHT22;11875;49.356;2.718;2023-04-19T00:14:41;14.40;99.90
23405;DHT22;11875;49.356;2.718;2023-04-19T00:17:07;14.40;99.90
23405;DHT22;11875;49.356;2.718;2023-04-19T00:19:32;14.40;99.90
23405;DHT22;11875;49.356;2.718;2023-04-19T00:21:58;14.30;99.90
23405;DHT22;11875;49.356;2.718;2023-04-19T00:24:24;14.30;99.90
23405;DHT22;11875;49.356;2.718;2023-04-19T00:26:50;14.30;99.90
23405;DHT22;11875;49.356;2.718;2023-04-19T00:29:15;14.30;99.90
23405;DHT22;11875;49.356;2.718;2023-04-19T00:31:41;14.30;99.90
23405;DHT22;11875;49.356;2.718;2023-04-19T00:34:06;14.30;99.90
23405;DHT22;11875;49.356;2.718;2023-04-19T00:36:32;14.30;99.90
23405;DHT22;11875;49.356;2.718;2023-04-19T00:38:58;14.30;99.90
23405;DHT22;11875;49.356;2.718;2023-04-19T00:41:23;14.20;99.90
23405;DHT22;11875;49.356;2.718;2023-04-19T00:43:49;14.20;99.90
23405;DHT22;11875;49.356;2.718;2023-04-19T00:46:15;14.10;99.90
23405;DHT22;11875;49.356;2.718;2023-04-19T00:48:41;14.10;99.90
23405;DHT22;11875;49.356;2.718;2023-04-19T00:51:07;14.10;99.90
23405;DHT22;11875;49.356;2.718;2023-04-19T00:53:34;14.10;99.90
23405;DHT22;11875;49.356;2.718;2023-04-19T00:56:01;14.00;99.90
23405;DHT22;11875;49.356;2.718;2023-04-19T00:58:29;14.00;99.90
23405;DHT22;11875;49.356;2.718;2023-04-19T01:00:56;14.00;99.90
23405;DHT22;11875;49.356;2.718;2023-04-19T01:03:22;13.90;99.90
23405;DHT22;11875;49.356;2.718;2023-04-19T01:05:48;13.80;99.90
23405;DHT22;11875;49.356;2.718;2023-04-19T01:08:13;13.80;99.90
23405;DHT22;11875;49.356;2.718;2023-04-19T01:10:39;13.70;99.90
23405;DHT22;11875;49.356;2.718;2023-04-19T01:13:05;13.80;99.90
23405;DHT22;11875;49.356;2.718;2023-04-19T01:15:30;13.80;99.90
23405;DHT22;11875;49.356;2.718;2023-04-19T01:17:56;13.80;99.90
23405;DHT22;11875;49.356;2.718;2023-04-19T01:20:22;13.70;99.90
23405;DHT22;11875;49.356;2.718;2023-04-19T01:22:47;13.80;99.90
23405;DHT22;11875;49.356;2.718;2023-04-19T01:25:13;13.80;99.90
23405;DHT22;11875;49.356;2.718;2023-04-19T01:27:38;13.60;99.90
23405;DHT22;11875;49.356;2.718;2023-04-19T01:30:05;13.70;99.90
23405;DHT22;11875;49.356;2.718;2023-04-19T01:32:31;13.60;99.90
23405;DHT22;11875;49.356;2.718;2023-04-19T01:34:56;13.60;99.90
23405;DHT22;11875;49.356;2.718;2023-04-19T01:37:22;13.60;99.90
23405;DHT22;11875;49.356;2.718;2023-04-19T01:39:48;13.60;99.90
23405;DHT22;11875;49.356;2.718;2023-04-19T01:42:13;13.50;99.90
23405;DHT22;11875;49.356;2.718;2023-04-19T01:44:39;13.40;99.90
23405;DHT22;11875;49.356;2.718;2023-04-19T01:47:04;13.50;99.90
23405;DHT22;11875;49.356;2.718;2023-04-19T01:49:30;13.50;99.90
23405;DHT22;11875;49.356;2.718;2023-04-19T01:51:56;13.50;99.90
23405;DHT22;11875;49.356;2.718;2023-04-19T01:54:21;13.50;99.90
23405;DHT22;11875;49.356;2.718;2023-04-19T01:56:47;13.50;99.90
23405;DHT22;11875;49.356;2.718;2023-04-19T01:59:12;13.40;99.90
23405;DHT22;11875;49.356;2.718;2023-04-19T02:01:38;13.40;99.90
23405;DHT22;11875;49.356;2.718;2023-04-19T02:04:03;13.30;99.90
23405;DHT22;11875;49.356;2.718;2023-04-19T02:06:29;13.30;99.90
23405;DHT22;11875;49.356;2.718;2023-04-19T02:08:56;13.30;99.90
23405;DHT22;11875;49.356;2.718;2023-04-19T02:11:21;13.30;99.90
23405;DHT22;11875;49.356;2.718;2023-04-19T02:13:47;13.30;99.90
23405;DHT22;11875;49.356;2.718;2023-04-19T02:16:12;13.30;99.90
23405;DHT22;11875;49.356;2.718;2023-04-19T02:18:38;13.20;99.90
23405;DHT22;11875;49.356;2.718;2023-04-19T02:21:05;13.30;99.90
23405;DHT22;11875;49.356;2.718;2023-04-19T02:23:31;13.20;99.90
23405;DHT22;11875;49.356;2.718;2023-04-19T02:25:57;13.30;99.90
23405;DHT22;11875;49.356;2.718;2023-04-19T02:28:23;13.20;99.90
23405;DHT22;11875;49.356;2.718;2023-04-19T02:30:48;13.10;99.90
23405;DHT22;11875;49.356;2.718;2023-04-19T02:33:14;13.10;99.90
23405;DHT22;11875;49.356;2.718;2023-04-19T02:35:40;13.10;99.90
23405;DHT22;11875;49.356;2.718;2023-04-19T02:38:05;13.10;99.90
23405;DHT22;11875;49.356;2.718;2023-04-19T02:40:31;13.10;99.90
23405;DHT22;11875;49.356;2.718;2023-04-19T02:42:57;13.10;99.90
23405;DHT22;11875;49.356;2.718;2023-04-19T02:45:22;13.10;99.90
23405;DHT22;11875;49.356;2.718;2023-04-19T02:47:48;12.90;99.90
23405;DHT22;11875;49.356;2.718;2023-04-19T02:50:15;12.90;99.90
23405;DHT22;11875;49.356;2.718;2023-04-19T02:52:40;13.40;99.90
23405;DHT22;11875;49.356;2.718;2023-04-19T02:55:06;13.00;99.90
23405;DHT22;11875;49.356;2.718;2023-04-19T02:57:32;12.90;99.90
23405;DHT22;11875;49.356;2.718;2023-04-19T02:59:57;13.20;99.90
23405;DHT22;11875;49.356;2.718;2023-04-19T03:02:24;13.20;99.90
23405;DHT22;11875;49.356;2.718;2023-04-19T03:04:50;12.80;99.90
23405;DHT22;11875;49.356;2.718;2023-04-19T03:07:15;12.80;99.90
23405;DHT22;11875;49.356;2.718;2023-04-19T03:09:41;12.80;99.90
23405;DHT22;11875;49.356;2.718;2023-04-19T03:12:07;12.70;99.90
23405;DHT22;11875;49.356;2.718;2023-04-19T03:14:32;12.60;99.90
23405;DHT22;11875;49.356;2.718;2023-04-19T03:16:58;12.60;99.90
23405;DHT22;11875;49.356;2.718;2023-04-19T03:19:24;12.60;99.90
23405;DHT22;11875;49.356;2.718;2023-04-19T03:21:50;12.60;99.90
23405;DHT22;11875;49.356;2.718;2023-04-19T03:24:17;12.60;99.90
23405;DHT22;11875;49.356;2.718;2023-04-19T03:26:43;12.50;99.90
23405;DHT22;11875;49.356;2.718;2023-04-19T03:29:09;12.60;99.90
23405;DHT22;11875;49.356;2.718;2023-04-19T03:31:35;12.60;99.90
23405;DHT22;11875;49.356;2.718;2023-04-19T03:34:01;12.60;99.90
23405;DHT22;11875;49.356;2.718;2023-04-19T03:36:26;12.60;99.90
23405;DHT22;11875;49.356;2.718;2023-04-19T03:38:52;12.50;99.90
23405;DHT22;11875;49.356;2.718;2023-04-19T03:41:25;12.40;99.90
23405;DHT22;11875;49.356;2.718;2023-04-19T03:43:51;12.30;99.90
23405;DHT22;11875;49.356;2.718;2023-04-19T03:46:16;12.20;99.90
23405;DHT22;11875;49.356;2.718;2023-04-19T03:48:42;12.10;99.90
23405;DHT22;11875;49.356;2.718;2023-04-19T03:51:08;12.00;99.90
23405;DHT22;11875;49.356;2.718;2023-04-19T03:53:34;12.00;99.90
23405;DHT22;11875;49.356;2.718;2023-04-19T03:56:00;12.10;99.90
23405;DHT22;11875;49.356;2.718;2023-04-19T03:58:26;12.10;99.90
23405;DHT22;11875;49.356;2.718;2023-04-19T04:00:51;12.10;99.90
23405;DHT22;11875;49.356;2.718;2023-04-19T04:03:18;12.00;99.90
23405;DHT22;11875;49.356;2.718;2023-04-19T04:05:43;12.10;99.90
23405;DHT22;11875;49.356;2.718;2023-04-19T04:08:09;12.20;99.90
23405;DHT22;11875;49.356;2.718;2023-04-19T04:10:35;12.20;99.90
23405;DHT22;11875;49.356;2.718;2023-04-19T04:13:00;12.90;99.90
23405;DHT22;11875;49.356;2.718;2023-04-19T04:15:26;11.90;99.90
23405;DHT22;11875;49.356;2.718;2023-04-19T04:17:51;12.80;99.90
23405;DHT22;11875;49.356;2.718;2023-04-19T04:20:17;11.90;99.90
23405;DHT22;11875;49.356;2.718;2023-04-19T04:22:43;11.70;99.90
23405;DHT22;11875;49.356;2.718;2023-04-19T04:25:10;11.90;99.90
23405;DHT22;11875;49.356;2.718;2023-04-19T04:27:37;11.90;99.90
23405;DHT22;11875;49.356;2.718;2023-04-19T04:30:04;11.90;99.90
23405;DHT22;11875;49.356;2.718;2023-04-19T04:32:30;12.00;99.90
23405;DHT22;11875;49.356;2.718;2023-04-19T04:35:01;12.00;99.90
23405;DHT22;11875;49.356;2.718;2023-04-19T04:37:27;12.00;99.90
23405;DHT22;11875;49.356;2.718;2023-04-19T04:39:52;13.00;99.90
23405;DHT22;11875;49.356;2.718;2023-04-19T04:42:18;12.00;99.90
23405;DHT22;11875;49.356;2.718;2023-04-19T04:44:46;12.00;99.90
23405;DHT22;11875;49.356;2.718;2023-04-19T04:47:14;12.00;99.90
23405;DHT22;11875;49.356;2.718;2023-04-19T04:49:40;11.90;99.90
23405;DHT22;11875;49.356;2.718;2023-04-19T04:52:05;11.90;99.90
23405;DHT22;11875;49.356;2.718;2023-04-19T04:54:33;11.80;99.90
23405;DHT22;11875;49.356;2.718;2023-04-19T04:56:58;11.70;99.90
23405;DHT22;11875;49.356;2.718;2023-04-19T04:59:25;11.70;99.90
23405;DHT22;11875;49.356;2.718;2023-04-19T05:01:51;12.00;99.90
23405;DHT22;11875;49.356;2.718;2023-04-19T05:04:17;11.80;99.90
23405;DHT22;11875;49.356;2.718;2023-04-19T05:06:43;11.80;99.90
23405;DHT22;11875;49.356;2.718;2023-04-19T05:09:09;11.80;99.90
23405;DHT22;11875;49.356;2.718;2023-04-19T05:11:36;11.80;99.90
23405;DHT22;11875;49.356;2.718;2023-04-19T05:14:02;11.60;99.90
23405;DHT22;11875;49.356;2.718;2023-04-19T05:16:28;11.70;99.90
23405;DHT22;11875;49.356;2.718;2023-04-19T05:18:53;11.70;99.90
23405;DHT22;11875;49.356;2.718;2023-04-19T05:21:20;12.40;99.90
23405;DHT22;11875;49.356;2.718;2023-04-19T05:23:45;11.60;99.90
23405;DHT22;11875;49.356;2.718;2023-04-19T05:26:11;11.60;99.90
23405;DHT22;11875;49.356;2.718;2023-04-19T05:28:39;11.40;99.90
23405;DHT22;11875;49.356;2.718;2023-04-19T05:31:05;11.40;99.90
23405;DHT22;11875;49.356;2.718;2023-04-19T05:33:31;11.50;99.90
23405;DHT22;11875;49.356;2.718;2023-04-19T05:35:56;11.60;99.90
23405;DHT22;11875;49.356;2.718;2023-04-19T05:38:22;12.50;99.90
23405;DHT22;11875;49.356;2.718;2023-04-19T05:40:47;11.70;99.90
23405;DHT22;11875;49.356;2.718;2023-04-19T05:43:13;11.50;99.90
23405;DHT22;11875;49.356;2.718;2023-04-19T05:45:38;11.40;99.90
23405;DHT22;11875;49.356;2.718;2023-04-19T05:48:04;11.30;99.90
23405;DHT22;11875;49.356;2.718;2023-04-19T05:50:30;11.40;99.90
23405;DHT22;11875;49.356;2.718;2023-04-19T05:52:56;11.40;99.90
23405;DHT22;11875;49.356;2.718;2023-04-19T05:55:22;11.50;99.90
23405;DHT22;11875;49.356;2.718;2023-04-19T05:57:47;11.40;99.90
23405;DHT22;11875;49.356;2.718;2023-04-19T06:00:13;11.20;99.90
23405;DHT22;11875;49.356;2.718;2023-04-19T06:02:40;11.20;99.90
23405;DHT22;11875;49.356;2.718;2023-04-19T06:05:06;11.10;99.90
23405;DHT22;11875;49.356;2.718;2023-04-19T06:07:31;11.10;99.90
23405;DHT22;11875;49.356;2.718;2023-04-19T06:09:57;11.10;99.90
23405;DHT22;11875;49.356;2.718;2023-04-19T06:12:23;11.10;99.90
23405;DHT22;11875;49.356;2.718;2023-04-19T06:14:48;11.00;99.90
23405;DHT22;11875;49.356;2.718;2023-04-19T06:17:14;11.00;99.90
23405;DHT22;11875;49.356;2.718;2023-04-19T06:19:41;11.10;99.90
23405;DHT22;11875;49.356;2.718;2023-04-19T06:22:07;11.20;99.90
23405;DHT22;11875;49.356;2.718;2023-04-19T06:24:32;11.20;99.90
23405;DHT22;11875;49.356;2.718;2023-04-19T06:26:58;11.30;99.90
23405;DHT22;11875;49.356;2.718;2023-04-19T06:29:24;11.40;99.90
23405;DHT22;11875;49.356;2.718;2023-04-19T06:31:50;11.50;99.90
23405;DHT22;11875;49.356;2.718;2023-04-19T06:34:15;11.70;99.90
23405;DHT22;11875;49.356;2.718;2023-04-19T06:36:41;11.70;99.90
23405;DHT22;11875;49.356;2.718;2023-04-19T06:39:07;11.80;99.90
23405;DHT22;11875;49.356;2.718;2023-04-19T06:41:32;11.90;99.90
23405;DHT22;11875;49.356;2.718;2023-04-19T06:43:58;11.60;99.90
23405;DHT22;11875;49.356;2.718;2023-04-19T06:46:23;11.70;99.90
23405;DHT22;11875;49.356;2.718;2023-04-19T06:48:49;11.70;99.90
23405;DHT22;11875;49.356;2.718;2023-04-19T06:51:15;11.70;99.90
23405;DHT22;11875;49.356;2.718;2023-04-19T06:53:40;11.60;99.90
23405;DHT22;11875;49.356;2.718;2023-04-19T06:56:06;11.70;99.90
23405;DHT22;11875;49.356;2.718;2023-04-19T06:58:32;11.80;99.90
23405;DHT22;11875;49.356;2.718;2023-04-19T07:00:58;11.80;99.90
23405;DHT22;11875;49.356;2.718;2023-04-19T07:03:24;11.80;99.90
23405;DHT22;11875;49.356;2.718;2023-04-19T07:05:50;11.70;99.90
23405;DHT22;11875;49.356;2.718;2023-04-19T07:08:21;11.70;99.90
23405;DHT22;11875;49.356;2.718;2023-04-19T07:10:46;11.80;99.90
23405;DHT22;11875;49.356;2.718;2023-04-19T07:13:12;12.00;99.90
23405;DHT22;11875;49.356;2.718;2023-04-19T07:15:37;12.20;99.90
23405;DHT22;11875;49.356;2.718;2023-04-19T07:18:03;12.10;99.90
23405;DHT22;11875;49.356;2.718;2023-04-19T07:20:28;12.20;99.90
23405;DHT22;11875;49.356;2.718;2023-04-19T07:22:59;12.10;99.90
23405;DHT22;11875;49.356;2.718;2023-04-19T07:25:25;12.50;99.90
23405;DHT22;11875;49.356;2.718;2023-04-19T07:27:52;12.50;99.90
23405;DHT22;11875;49.356;2.718;2023-04-19T07:30:18;12.60;99.90
23405;DHT22;11875;49.356;2.718;2023-04-19T07:32:44;12.60;99.90
23405;DHT22;11875;49.356;2.718;2023-04-19T07:35:10;12.70;99.90
23405;DHT22;11875;49.356;2.718;2023-04-19T07:37:36;12.80;99.90
23405;DHT22;11875;49.356;2.718;2023-04-19T07:40:02;12.90;99.90
23405;DHT22;11875;49.356;2.718;2023-04-19T07:42:29;13.00;99.90
23405;DHT22;11875;49.356;2.718;2023-04-19T07:44:55;13.20;99.90
23405;DHT22;11875;49.356;2.718;2023-04-19T07:47:20;13.70;99.90
23405;DHT22;11875;49.356;2.718;2023-04-19T07:49:50;13.90;99.90
23405;DHT22;11875;49.356;2.718;2023-04-19T07:52:15;14.20;99.90
23405;DHT22;11875;49.356;2.718;2023-04-19T07:54:42;14.70;99.90
23405;DHT22;11875;49.356;2.718;2023-04-19T07:57:08;14.90;99.90
23405;DHT22;11875;49.356;2.718;2023-04-19T07:59:34;15.30;99.90
23405;DHT22;11875;49.356;2.718;2023-04-19T08:01:59;15.50;99.90
23405;DHT22;11875;49.356;2.718;2023-04-19T08:04:25;15.60;99.90
23405;DHT22;11875;49.356;2.718;2023-04-19T08:06:51;15.80;99.90
23405;DHT22;11875;49.356;2.718;2023-04-19T08:09:17;15.80;99.90
23405;DHT22;11875;49.356;2.718;2023-04-19T08:11:43;15.90;99.90
23405;DHT22;11875;49.356;2.718;2023-04-19T08:14:08;16.10;99.90
23405;DHT22;11875;49.356;2.718;2023-04-19T08:16:34;16.30;99.90
23405;DHT22;11875;49.356;2.718;2023-04-19T08:19:00;16.30;99.90
23405;DHT22;11875;49.356;2.718;2023-04-19T08:21:26;16.40;99.90
23405;DHT22;11875;49.356;2.718;2023-04-19T08:23:51;16.50;99.90
23405;DHT22;11875;49.356;2.718;2023-04-19T08:26:17;16.30;99.90
23405;DHT22;11875;49.356;2.718;2023-04-19T08:28:43;16.30;99.90
23405;DHT22;11875;49.356;2.718;2023-04-19T08:31:08;16.40;99.90
23405;DHT22;11875;49.356;2.718;2023-04-19T08:33:35;16.50;99.90
23405;DHT22;11875;49.356;2.718;2023-04-19T08:36:00;16.60;99.90
23405;DHT22;11875;49.356;2.718;2023-04-19T08:38:26;16.60;99.90
23405;DHT22;11875;49.356;2.718;2023-04-19T08:40:53;16.80;99.90
23405;DHT22;11875;49.356;2.718;2023-04-19T08:43:24;16.80;99.90
23405;DHT22;11875;49.356;2.718;2023-04-19T08:45:50;16.70;99.90
23405;DHT22;11875;49.356;2.718;2023-04-19T08:48:17;16.80;99.90
23405;DHT22;11875;49.356;2.718;2023-04-19T08:50:43;17.00;99.90
23405;DHT22;11875;49.356;2.718;2023-04-19T08:53:13;17.00;99.90
23405;DHT22;11875;49.356;2.718;2023-04-19T08:55:41;17.00;99.90
23405;DHT22;11875;49.356;2.718;2023-04-19T08:58:08;17.20;99.90
23405;DHT22;11875;49.356;2.718;2023-04-19T09:00:37;17.10;99.90
23405;DHT22;11875;49.356;2.718;2023-04-19T09:03:06;17.20;99.90
23405;DHT22;11875;49.356;2.718;2023-04-19T09:05:32;17.50;99.90
23405;DHT22;11875;49.356;2.718;2023-04-19T09:08:23;17.60;99.90
23405;DHT22;11875;49.356;2.718;2023-04-19T09:10:58;17.60;99.90
23405;DHT22;11875;49.356;2.718;2023-04-19T09:13:25;17.40;99.90
23405;DHT22;11875;49.356;2.718;2023-04-19T09:15:51;17.20;99.90
23405;DHT22;11875;49.356;2.718;2023-04-19T09:18:18;17.20;99.90
23405;DHT22;11875;49.356;2.718;2023-04-19T09:20:45;17.30;99.90
23405;DHT22;11875;49.356;2.718;2023-04-19T09:23:17;17.40;99.90
23405;DHT22;11875;49.356;2.718;2023-04-19T09:25:57;17.70;99.90
23405;DHT22;11875;49.356;2.718;2023-04-19T09:28:25;17.70;99.90
23405;DHT22;11875;49.356;2.718;2023-04-19T09:30:50;17.90;99.90
23405;DHT22;11875;49.356;2.718;2023-04-19T09:33:33;17.90;99.90
23405;DHT22;11875;49.356;2.718;2023-04-19T09:35:59;18.10;99.90
23405;DHT22;11875;49.356;2.718;2023-04-19T09:38:26;18.10;99.90
23405;DHT22;11875;49.356;2.718;2023-04-19T09:40:54;18.10;99.90
23405;DHT22;11875;49.356;2.718;2023-04-19T09:43:29;18.10;99.90
23405;DHT22;11875;49.356;2.718;2023-04-19T09:45:55;18.20;99.90
23405;DHT22;11875;49.356;2.718;2023-04-19T09:48:22;18.20;99.90
23405;DHT22;11875;49.356;2.718;2023-04-19T09:50:52;18.30;99.90
23405;DHT22;11875;49.356;2.718;2023-04-19T09:53:19;18.40;99.90
23405;DHT22;11875;49.356;2.718;2023-04-19T09:55:45;18.50;99.90
23405;DHT22;11875;49.356;2.718;2023-04-19T09:58:12;18.50;99.90
23405;DHT22;11875;49.356;2.718;2023-04-19T10:00:40;18.50;99.90
23405;DHT22;11875;49.356;2.718;2023-04-19T10:03:08;18.50;99.90
23405;DHT22;11875;49.356;2.718;2023-04-19T10:05:37;18.40;99.90
23405;DHT22;11875;49.356;2.718;2023-04-19T10:08:06;18.30;99.90
23405;DHT22;11875;49.356;2.718;2023-04-19T10:10:32;18.40;99.90
23405;DHT22;11875;49.356;2.718;2023-04-19T10:12:58;18.60;99.90
23405;DHT22;11875;49.356;2.718;2023-04-19T10:15:25;18.50;99.90
23405;DHT22;11875;49.356;2.718;2023-04-19T10:17:51;18.30;99.90
23405;DHT22;11875;49.356;2.718;2023-04-19T10:20:41;18.40;99.90
23405;DHT22;11875;49.356;2.718;2023-04-19T10:23:10;18.40;99.90
23405;DHT22;11875;49.356;2.718;2023-04-19T10:25:37;18.50;99.90
23405;DHT22;11875;49.356;2.718;2023-04-19T10:28:03;18.40;99.90
23405;DHT22;11875;49.356;2.718;2023-04-19T10:30:29;18.60;99.90
23405;DHT22;11875;49.356;2.718;2023-04-19T10:32:56;18.60;99.90
23405;DHT22;11875;49.356;2.718;2023-04-19T10:35:27;18.60;99.90
23405;DHT22;11875;49.356;2.718;2023-04-19T10:38:14;18.70;99.90
23405;DHT22;11875;49.356;2.718;2023-04-19T10:43:31;18.90;99.90
23405;DHT22;11875;49.356;2.718;2023-04-19T10:51:20;19.20;99.90
23405;DHT22;11875;49.356;2.718;2023-04-19T10:53:58;19.10;99.90
23405;DHT22;11875;49.356;2.718;2023-04-19T11:04:01;19.70;99.90
23405;DHT22;11875;49.356;2.718;2023-04-19T11:06:27;19.70;99.90
23405;DHT22;11875;49.356;2.718;2023-04-19T11:08:53;19.40;99.90
23405;DHT22;11875;49.356;2.718;2023-04-19T11:11:19;19.30;99.90
23405;DHT22;11875;49.356;2.718;2023-04-19T11:13:49;19.10;99.90
23405;DHT22;11875;49.356;2.718;2023-04-19T11:16:14;19.20;99.90
23405;DHT22;11875;49.356;2.718;2023-04-19T11:18:40;19.40;99.90
23405;DHT22;11875;49.356;2.718;2023-04-19T11:21:06;19.20;99.90
23405;DHT22;11875;49.356;2.718;2023-04-19T11:23:31;19.30;99.90
23405;DHT22;11875;49.356;2.718;2023-04-19T11:25:57;19.20;99.90
23405;DHT22;11875;49.356;2.718;2023-04-19T11:28:23;19.30;99.90
23405;DHT22;11875;49.356;2.718;2023-04-19T11:30:49;19.40;99.90
23405;DHT22;11875;49.356;2.718;2023-04-19T11:33:18;19.40;99.90
23405;DHT22;11875;49.356;2.718;2023-04-19T11:35:49;19.40;99.90
23405;DHT22;11875;49.356;2.718;2023-04-19T11:38:14;19.50;99.90
23405;DHT22;11875;49.356;2.718;2023-04-19T11:40:40;19.60;99.90
23405;DHT22;11875;49.356;2.718;2023-04-19T11:43:06;19.70;99.90
23405;DHT22;11875;49.356;2.718;2023-04-19T11:45:33;19.80;99.90
23405;DHT22;11875;49.356;2.718;2023-04-19T11:48:00;20.00;99.90
23405;DHT22;11875;49.356;2.718;2023-04-19T11:53:15;20.40;99.90
23405;DHT22;11875;49.356;2.718;2023-04-19T11:55:48;20.30;99.90
23405;DHT22;11875;49.356;2.718;2023-04-19T12:01:04;20.30;99.90
23405;DHT22;11875;49.356;2.718;2023-04-19T12:03:31;20.50;99.90
23405;DHT22;11875;49.356;2.718;2023-04-19T12:06:01;20.50;99.90
23405;DHT22;11875;49.356;2.718;2023-04-19T12:08:36;20.80;99.90
23405;DHT22;11875;49.356;2.718;2023-04-19T12:11:03;20.80;99.90
23405;DHT22;11875;49.356;2.718;2023-04-19T12:13:30;20.90;99.90
23405;DHT22;11875;49.356;2.718;2023-04-19T12:15:56;20.80;99.90
23405;DHT22;11875;49.356;2.718;2023-04-19T12:18:22;20.80;99.90
23405;DHT22;11875;49.356;2.718;2023-04-19T12:20:50;20.80;99.70
23405;DHT22;11875;49.356;2.718;2023-04-19T12:23:18;20.60;99.60
23405;DHT22;11875;49.356;2.718;2023-04-19T12:25:45;20.40;99.80
23405;DHT22;11875;49.356;2.718;2023-04-19T12:28:11;20.20;99.90
23405;DHT22;11875;49.356;2.718;2023-04-19T12:30:38;20.30;99.90
23405;DHT22;11875;49.356;2.718;2023-04-19T12:33:05;20.50;99.90
23405;DHT22;11875;49.356;2.718;2023-04-19T12:35:31;20.70;99.90
23405;DHT22;11875;49.356;2.718;2023-04-19T12:37:57;20.70;99.90
23405;DHT22;11875;49.356;2.718;2023-04-19T12:40:24;20.80;99.90
23405;DHT22;11875;49.356;2.718;2023-04-19T12:42:51;20.80;99.90
23405;DHT22;11875;49.356;2.718;2023-04-19T12:45:18;20.80;99.80
23405;DHT22;11875;49.356;2.718;2023-04-19T12:47:45;20.80;99.50
23405;DHT22;11875;49.356;2.718;2023-04-19T12:50:12;20.90;99.70
23405;DHT22;11875;49.356;2.718;2023-04-19T12:52:38;20.80;99.80
23405;DHT22;11875;49.356;2.718;2023-04-19T12:55:04;20.80;99.90
23405;DHT22;11875;49.356;2.718;2023-04-19T12:57:30;20.60;99.90
23405;DHT22;11875;49.356;2.718;2023-04-19T12:59:56;20.40;99.90
23405;DHT22;11875;49.356;2.718;2023-04-19T13:02:21;20.20;99.90
23405;DHT22;11875;49.356;2.718;2023-04-19T13:04:47;20.10;99.90
23405;DHT22;11875;49.356;2.718;2023-04-19T13:07:13;20.00;99.90
23405;DHT22;11875;49.356;2.718;2023-04-19T13:09:38;19.90;99.90
23405;DHT22;11875;49.356;2.718;2023-04-19T13:12:04;20.10;99.90
23405;DHT22;11875;49.356;2.718;2023-04-19T13:14:30;20.10;99.90
23405;DHT22;11875;49.356;2.718;2023-04-19T13:16:56;20.00;99.90
23405;DHT22;11875;49.356;2.718;2023-04-19T13:19:21;19.90;99.90
23405;DHT22;11875;49.356;2.718;2023-04-19T13:21:47;19.80;99.90
23405;DHT22;11875;49.356;2.718;2023-04-19T13:24:13;19.90;99.90
23405;DHT22;11875;49.356;2.718;2023-04-19T13:26:38;19.80;99.90
23405;DHT22;11875;49.356;2.718;2023-04-19T13:29:04;19.80;99.90
23405;DHT22;11875;49.356;2.718;2023-04-19T13:31:30;19.70;99.90
23405;DHT22;11875;49.356;2.718;2023-04-19T13:33:55;19.70;99.90
23405;DHT22;11875;49.356;2.718;2023-04-19T13:36:21;19.80;99.90
23405;DHT22;11875;49.356;2.718;2023-04-19T13:38:47;19.50;99.90
23405;DHT22;11875;49.356;2.718;2023-04-19T13:41:13;19.70;99.90
23405;DHT22;11875;49.356;2.718;2023-04-19T13:43:39;19.70;99.90
23405;DHT22;11875;49.356;2.718;2023-04-19T13:46:05;19.70;99.90
23405;DHT22;11875;49.356;2.718;2023-04-19T13:48:31;19.90;99.90
23405;DHT22;11875;49.356;2.718;2023-04-19T13:50:57;19.90;99.90
23405;DHT22;11875;49.356;2.718;2023-04-19T13:53:25;19.90;99.90
23405;DHT22;11875;49.356;2.718;2023-04-19T13:55:51;20.00;99.90
23405;DHT22;11875;49.356;2.718;2023-04-19T13:58:17;19.90;99.50
23405;DHT22;11875;49.356;2.718;2023-04-19T14:00:43;19.60;99.90
23405;DHT22;11875;49.356;2.718;2023-04-19T14:03:09;19.60;99.80
23405;DHT22;11875;49.356;2.718;2023-04-19T14:05:35;19.70;99.90
23405;DHT22;11875;49.356;2.718;2023-04-19T14:08:00;19.60;99.90
23405;DHT22;11875;49.356;2.718;2023-04-19T14:10:26;19.40;99.90
23405;DHT22;11875;49.356;2.718;2023-04-19T14:12:52;19.20;99.90
23405;DHT22;11875;49.356;2.718;2023-04-19T14:15:20;19.10;99.90
23405;DHT22;11875;49.356;2.718;2023-04-19T14:17:48;19.20;99.90
23405;DHT22;11875;49.356;2.718;2023-04-19T14:20:13;19.30;99.90
23405;DHT22;11875;49.356;2.718;2023-04-19T14:22:39;19.60;99.90
23405;DHT22;11875;49.356;2.718;2023-04-19T14:25:05;19.70;99.90
23405;DHT22;11875;49.356;2.718;2023-04-19T14:27:31;19.90;99.90
23405;DHT22;11875;49.356;2.718;2023-04-19T14:29:57;19.70;99.60
23405;DHT22;11875;49.356;2.718;2023-04-19T14:32:22;19.60;99.80
23405;DHT22;11875;49.356;2.718;2023-04-19T14:34:48;19.60;99.80
23405;DHT22;11875;49.356;2.718;2023-04-19T14:37:14;19.70;99.70
23405;DHT22;11875;49.356;2.718;2023-04-19T14:39:39;19.60;99.40
23405;DHT22;11875;49.356;2.718;2023-04-19T14:42:05;19.40;99.70
23405;DHT22;11875;49.356;2.718;2023-04-19T14:44:31;19.40;99.90
23405;DHT22;11875;49.356;2.718;2023-04-19T14:46:56;19.70;99.30
23405;DHT22;11875;49.356;2.718;2023-04-19T14:49:22;19.80;99.40
23405;DHT22;11875;49.356;2.718;2023-04-19T14:51:47;19.90;99.50
23405;DHT22;11875;49.356;2.718;2023-04-19T14:54:13;20.00;99.30
23405;DHT22;11875;49.356;2.718;2023-04-19T14:56:39;20.00;99.20
23405;DHT22;11875;49.356;2.718;2023-04-19T14:59:05;19.80;99.10
23405;DHT22;11875;49.356;2.718;2023-04-19T15:01:32;19.80;99.20
23405;DHT22;11875;49.356;2.718;2023-04-19T15:03:58;19.80;99.30
23405;DHT22;11875;49.356;2.718;2023-04-19T15:06:24;19.60;99.50
23405;DHT22;11875;49.356;2.718;2023-04-19T15:08:49;19.40;99.60
23405;DHT22;11875;49.356;2.718;2023-04-19T15:11:15;19.40;99.90
23405;DHT22;11875;49.356;2.718;2023-04-19T15:13:43;19.50;99.60
23405;DHT22;11875;49.356;2.718;2023-04-19T15:16:09;19.60;99.60
23405;DHT22;11875;49.356;2.718;2023-04-19T15:18:34;19.80;99.10
23405;DHT22;11875;49.356;2.718;2023-04-19T15:21:03;19.70;99.10
23405;DHT22;11875;49.356;2.718;2023-04-19T15:23:29;19.60;99.30
23405;DHT22;11875;49.356;2.718;2023-04-19T15:25:55;19.40;99.40
23405;DHT22;11875;49.356;2.718;2023-04-19T15:28:22;19.60;99.30
23405;DHT22;11875;49.356;2.718;2023-04-19T15:30:59;19.40;99.20
23405;DHT22;11875;49.356;2.718;2023-04-19T15:33:25;19.40;99.50
23405;DHT22;11875;49.356;2.718;2023-04-19T15:35:52;19.30;99.80
23405;DHT22;11875;49.356;2.718;2023-04-19T15:38:19;19.40;99.70
23405;DHT22;11875;49.356;2.718;2023-04-19T15:40:45;18.80;99.40
23405;DHT22;11875;49.356;2.718;2023-04-19T15:43:11;19.30;99.20
23405;DHT22;11875;49.356;2.718;2023-04-19T15:45:36;19.20;99.30